createdAt,value
2018-02-05T00:02:21.116Z,4.71
2018-02-05T00:04:48.685Z,4.81
2018-02-05T00:07:16.221Z,4.90
2018-02-05T00:09:43.984Z,4.99
2018-02-05T00:12:11.517Z,5.08
2018-02-05T00:14:39.038Z,5.11
2018-02-05T00:17:06.605Z,5.09
2018-02-05T00:19:34.128Z,5.05
2018-02-05T00:22:01.639Z,5.04
2018-02-05T00:24:29.167Z,5.01
2018-02-05T00:26:56.648Z,5.01
2018-02-05T00:29:24.172Z,5.09
2018-02-05T00:31:51.653Z,5.14
2018-02-05T00:34:19.219Z,5.17
2018-02-05T00:36:46.712Z,5.18
2018-02-05T00:39:14.193Z,5.18
2018-02-05T00:41:41.711Z,4.99
2018-02-05T00:44:10.175Z,4.96
2018-02-05T00:46:37.704Z,4.76
2018-02-05T00:49:05.297Z,4.85
2018-02-05T00:51:32.798Z,4.86
2018-02-05T00:54:05.431Z,4.81
2018-02-05T00:56:32.923Z,4.84
2018-02-05T00:59:00.542Z,4.85
2018-02-05T01:01:28.090Z,4.92
2018-02-05T01:03:55.697Z,4.96
2018-02-05T01:06:23.224Z,4.98
2018-02-05T01:08:50.838Z,5.02
2018-02-05T01:11:18.436Z,5.02
2018-02-05T01:13:45.976Z,4.98
2018-02-05T01:16:13.490Z,4.87
2018-02-05T01:18:41.024Z,4.79
2018-02-05T01:21:08.609Z,4.76
2018-02-05T01:23:36.121Z,4.82
2018-02-05T01:26:03.654Z,4.90
2018-02-05T01:28:31.160Z,4.68
2018-02-05T01:30:58.700Z,4.58
2018-02-05T01:33:26.213Z,4.63
2018-02-05T01:35:53.718Z,4.64
2018-02-05T01:38:21.281Z,4.57
2018-02-05T01:40:48.771Z,4.54
2018-02-05T01:43:16.302Z,4.63
2018-02-05T01:45:43.892Z,4.69
2018-02-05T01:48:11.434Z,4.67
2018-02-05T01:50:38.916Z,4.67
2018-02-05T01:53:06.454Z,4.70
2018-02-05T01:55:33.998Z,4.74
2018-02-05T01:58:01.623Z,4.69
2018-02-05T02:00:29.345Z,4.69
2018-02-05T02:02:56.918Z,4.66
2018-02-05T02:05:24.504Z,4.69
2018-02-05T02:07:52.025Z,4.72
2018-02-05T02:10:19.558Z,4.77
2018-02-05T02:12:47.046Z,4.76
2018-02-05T02:15:14.580Z,4.69
2018-02-05T02:17:42.117Z,4.71
2018-02-05T02:20:09.612Z,4.61
2018-02-05T02:22:37.162Z,4.60
2018-02-05T02:25:04.669Z,4.59
2018-02-05T02:27:32.218Z,4.64
2018-02-05T02:29:59.710Z,4.71
2018-02-05T02:32:27.207Z,4.76
2018-02-05T02:34:54.741Z,4.77
2018-02-05T02:37:23.085Z,4.68
2018-02-05T02:39:50.730Z,4.63
2018-02-05T02:42:18.289Z,4.68
2018-02-05T02:44:45.836Z,4.59
2018-02-05T02:47:13.453Z,4.62
2018-02-05T02:49:40.996Z,4.67
2018-02-05T02:52:08.509Z,4.57
2018-02-05T02:54:35.994Z,4.53
2018-02-05T02:57:03.512Z,4.47
2018-02-05T02:59:31.008Z,4.49
2018-02-05T03:01:59.446Z,4.53
2018-02-05T03:04:27.095Z,4.52
2018-02-05T03:06:54.603Z,4.41
2018-02-05T03:09:22.080Z,4.38
2018-02-05T03:11:49.594Z,4.44
2018-02-05T03:14:17.082Z,4.45
2018-02-05T03:16:44.694Z,4.44
2018-02-05T03:19:12.572Z,4.40
2018-02-05T03:21:40.084Z,4.48
2018-02-05T03:24:07.579Z,4.47
2018-02-05T03:26:35.088Z,4.46
2018-02-05T03:29:02.681Z,4.42
2018-02-05T03:31:30.172Z,4.35
2018-02-05T03:33:57.695Z,4.35
2018-02-05T03:36:25.195Z,4.33
2018-02-05T03:38:52.724Z,4.27
2018-02-05T03:41:20.200Z,4.35
2018-02-05T03:43:47.707Z,4.35
2018-02-05T03:46:15.218Z,4.41
2018-02-05T03:48:42.713Z,4.44
2018-02-05T03:51:10.226Z,4.36
2018-02-05T03:53:37.708Z,4.48
2018-02-05T03:56:05.225Z,4.41
2018-02-05T03:58:32.713Z,4.48
2018-02-05T04:01:00.264Z,4.45
2018-02-05T04:03:27.777Z,4.39
2018-02-05T04:05:55.357Z,4.32
2018-02-05T04:08:22.978Z,4.29
2018-02-05T04:10:50.527Z,4.32
2018-02-05T04:13:18.165Z,4.40
2018-02-05T04:15:45.759Z,4.50
2018-02-05T04:18:13.284Z,4.46
2018-02-05T04:20:40.832Z,4.46
2018-02-05T04:23:08.409Z,4.46
2018-02-05T04:25:35.918Z,4.34
2018-02-05T04:28:03.444Z,4.36
2018-02-05T04:30:30.956Z,4.43
2018-02-05T04:32:58.473Z,4.46
2018-02-05T04:35:26.018Z,4.44
2018-02-05T04:37:53.503Z,4.48
2018-02-05T04:40:21.025Z,4.56
2018-02-05T04:42:48.537Z,4.52
2018-02-05T04:45:16.028Z,4.38
2018-02-05T04:47:44.440Z,4.27
2018-02-05T04:50:11.957Z,4.34
2018-02-05T04:52:39.506Z,4.33
2018-02-05T04:55:07.219Z,4.24
2018-02-05T04:57:35.346Z,4.08
2018-02-05T05:00:02.887Z,4.21
2018-02-05T05:02:30.403Z,4.28
2018-02-05T05:04:57.936Z,4.27
2018-02-05T05:07:25.580Z,4.25
2018-02-05T05:09:53.081Z,4.30
2018-02-05T05:12:20.582Z,4.31
2018-02-05T05:14:48.103Z,4.38
2018-02-05T05:17:17.017Z,4.48
2018-02-05T05:19:44.536Z,4.53
2018-02-05T05:22:12.114Z,4.52
2018-02-05T05:24:39.585Z,4.45
2018-02-05T05:27:07.200Z,4.49
2018-02-05T05:29:34.712Z,4.52
2018-02-05T05:32:02.289Z,4.56
2018-02-05T05:34:29.818Z,4.60
2018-02-05T05:36:57.342Z,4.58
2018-02-05T05:39:25.015Z,4.57
2018-02-05T05:41:52.573Z,4.62
2018-02-05T05:44:20.834Z,4.57
2018-02-05T05:46:48.333Z,4.64
2018-02-05T05:49:15.853Z,4.63
2018-02-05T05:51:43.389Z,4.54
2018-02-05T05:54:10.914Z,4.54
2018-02-05T05:56:38.406Z,4.55
2018-02-05T05:59:05.952Z,4.60
2018-02-05T06:01:33.445Z,4.64
2018-02-05T06:04:00.975Z,4.67
2018-02-05T06:06:29.400Z,4.73
2018-02-05T06:08:56.924Z,4.59
2018-02-05T06:11:24.573Z,4.45
2018-02-05T06:13:52.182Z,4.37
2018-02-05T06:16:19.724Z,4.27
2018-02-05T06:18:47.205Z,4.10
2018-02-05T06:21:14.766Z,3.93
2018-02-05T06:23:42.282Z,3.82
2018-02-05T06:26:10.143Z,3.92
2018-02-05T06:28:37.696Z,3.97
2018-02-05T06:31:05.180Z,3.90
2018-02-05T06:33:32.695Z,3.93
2018-02-05T06:36:00.312Z,3.92
2018-02-05T06:38:28.017Z,3.94
2018-02-05T06:40:55.602Z,3.95
2018-02-05T06:43:23.191Z,3.90
2018-02-05T06:45:51.349Z,3.98
2018-02-05T06:51:04.323Z,4.10
2018-02-05T06:53:43.579Z,4.22
2018-02-05T06:56:26.846Z,4.23
2018-02-05T06:58:54.344Z,4.27
2018-02-05T07:01:22.579Z,4.29
2018-02-05T07:03:50.108Z,4.26
2018-02-05T07:06:17.617Z,4.32
2018-02-05T07:08:45.113Z,4.23
2018-02-05T07:11:12.636Z,4.25
2018-02-05T07:13:40.157Z,4.08
2018-02-05T07:16:07.670Z,4.02
2018-02-05T07:18:35.202Z,4.01
2018-02-05T07:21:02.777Z,4.00
2018-02-05T07:23:30.385Z,4.04
2018-02-05T07:25:57.871Z,4.00
2018-02-05T07:28:25.376Z,4.14
2018-02-05T07:30:52.913Z,4.24
2018-02-05T07:33:20.750Z,4.24
2018-02-05T07:35:48.309Z,4.27
2018-02-05T07:38:15.827Z,4.30
2018-02-05T07:40:43.373Z,4.27
2018-02-05T07:43:10.930Z,4.34
2018-02-05T07:45:38.438Z,4.35
2018-02-05T07:48:05.928Z,4.92
2018-02-05T07:50:33.464Z,5.38
2018-02-05T07:53:00.960Z,5.55
2018-02-05T07:55:28.484Z,5.75
2018-02-05T07:57:56.033Z,5.90
2018-02-05T08:00:23.823Z,5.79
2018-02-05T08:02:51.326Z,5.55
2018-02-05T08:05:18.832Z,5.23
2018-02-05T08:07:46.373Z,5.21
2018-02-05T08:10:13.870Z,5.39
2018-02-05T08:12:41.390Z,5.94
2018-02-05T08:15:08.912Z,6.29
2018-02-05T08:17:37.249Z,6.81
2018-02-05T08:20:04.754Z,7.01
2018-02-05T08:22:32.260Z,7.06
2018-02-05T08:24:59.832Z,7.27
2018-02-05T08:27:27.342Z,7.42
2018-02-05T08:29:54.855Z,7.65
2018-02-05T08:32:22.355Z,7.51
2018-02-05T08:34:49.900Z,7.95
2018-02-05T08:37:17.815Z,8.00
2018-02-05T08:39:45.352Z,8.04
2018-02-05T08:42:12.857Z,7.33
2018-02-05T08:44:40.398Z,6.71
2018-02-05T08:47:07.939Z,6.61
2018-02-05T08:49:35.480Z,6.91
2018-02-05T08:52:03.001Z,6.87
2018-02-05T08:54:30.506Z,6.29
2018-02-05T08:56:58.019Z,5.93
2018-02-05T08:59:25.609Z,5.89
2018-02-05T09:01:53.260Z,5.99
2018-02-05T09:04:20.855Z,5.94
2018-02-05T09:06:48.452Z,5.95
2018-02-05T09:09:16.026Z,5.91
2018-02-05T09:11:43.649Z,5.90
2018-02-05T09:14:11.150Z,5.80
2018-02-05T09:16:38.648Z,5.73
2018-02-05T09:19:06.186Z,5.70
2018-02-05T09:21:33.686Z,5.55
2018-02-05T09:24:01.259Z,5.45
2018-02-05T09:26:28.769Z,5.46
2018-02-05T09:28:56.320Z,5.18
2018-02-05T09:31:23.994Z,5.32
2018-02-05T09:33:51.523Z,5.42
2018-02-05T09:36:19.113Z,5.52
2018-02-05T09:38:46.634Z,5.43
2018-02-05T09:41:14.959Z,5.37
2018-02-05T09:43:42.474Z,5.28
2018-02-05T09:46:09.988Z,5.07
2018-02-05T09:48:37.530Z,5.03
2018-02-05T09:51:05.119Z,5.04
2018-02-05T09:53:32.644Z,5.03
2018-02-05T09:56:00.165Z,4.95
2018-02-05T09:58:27.670Z,4.81
2018-02-05T10:00:55.199Z,4.66
2018-02-05T10:03:22.788Z,4.52
2018-02-05T10:05:50.318Z,4.54
2018-02-05T10:08:17.859Z,4.43
2018-02-05T10:10:45.380Z,4.43
2018-02-05T10:13:12.873Z,4.50
2018-02-05T10:15:40.398Z,4.56
2018-02-05T10:18:07.943Z,4.58
2018-02-05T10:20:35.513Z,4.60
2018-02-05T10:23:03.011Z,4.48
2018-02-05T10:25:31.310Z,4.77
2018-02-05T10:27:58.850Z,4.78
2018-02-05T10:30:26.440Z,4.69
2018-02-05T10:32:53.950Z,4.63
2018-02-05T10:35:21.454Z,4.67
2018-02-05T10:37:49.051Z,4.79
2018-02-05T10:40:16.543Z,4.77
2018-02-05T10:42:44.078Z,4.53
2018-02-05T10:45:11.597Z,4.43
2018-02-05T10:47:39.088Z,4.49
2018-02-05T10:50:06.601Z,4.57
2018-02-05T10:52:34.085Z,4.49
2018-02-05T10:55:01.605Z,4.50
2018-02-05T10:57:29.192Z,4.59
2018-02-05T10:59:56.775Z,4.56
2018-02-05T11:02:24.355Z,4.62
2018-02-05T11:04:51.947Z,4.62
2018-02-05T11:07:19.430Z,4.51
2018-02-05T11:09:46.955Z,4.44
2018-02-05T11:12:14.516Z,4.45
2018-02-05T11:14:42.113Z,4.51
2018-02-05T11:17:09.704Z,4.54
2018-02-05T11:19:37.212Z,4.79
2018-02-05T11:22:04.859Z,5.43
2018-02-05T11:24:32.378Z,7.02
2018-02-05T11:26:59.922Z,8.09
2018-02-05T11:29:27.440Z,8.89
2018-02-05T11:31:55.010Z,9.37
2018-02-05T11:34:22.516Z,9.94
2018-02-05T11:36:50.026Z,10.67
2018-02-05T11:39:17.563Z,11.08
2018-02-05T11:41:45.056Z,11.27
2018-02-05T11:44:12.575Z,11.55
2018-02-05T11:46:40.084Z,11.53
2018-02-05T11:49:07.619Z,10.96
2018-02-05T11:51:35.181Z,10.33
2018-02-05T11:54:02.750Z,10.53
2018-02-05T11:56:30.271Z,10.74
2018-02-05T11:58:57.829Z,10.30
2018-02-05T12:01:25.314Z,9.79
2018-02-05T12:03:52.811Z,10.28
2018-02-05T12:06:20.407Z,11.10
2018-02-05T12:08:48.016Z,11.64
2018-02-05T12:11:15.561Z,12.21
2018-02-05T12:13:43.051Z,12.54
2018-02-05T12:16:10.570Z,13.32
2018-02-05T12:18:38.713Z,14.38
2018-02-05T12:21:06.201Z,14.40
2018-02-05T12:23:34.067Z,13.79
2018-02-05T12:26:01.549Z,13.57
2018-02-05T12:28:29.084Z,13.15
2018-02-05T12:30:56.699Z,13.43
2018-02-05T12:33:24.240Z,13.87
2018-02-05T12:35:51.747Z,14.16
2018-02-05T12:38:19.266Z,14.62
2018-02-05T12:40:46.774Z,14.47
2018-02-05T12:43:14.308Z,15.01
2018-02-05T12:45:41.842Z,14.86
2018-02-05T12:48:09.342Z,14.37
2018-02-05T12:50:36.875Z,13.49
2018-02-05T12:53:04.381Z,13.19
2018-02-05T12:55:31.979Z,13.35
2018-02-05T12:57:59.478Z,13.56
2018-02-05T13:03:47.809Z,12.73
2018-02-05T13:06:20.847Z,12.39
2018-02-05T13:08:48.358Z,11.97
2018-02-05T13:11:15.904Z,11.73
2018-02-05T13:13:43.387Z,11.54
2018-02-05T13:16:10.923Z,11.21
2018-02-05T13:18:38.881Z,10.82
2018-02-05T13:21:06.385Z,11.10
2018-02-05T13:23:33.862Z,11.54
2018-02-05T13:26:01.397Z,11.93
2018-02-05T13:28:28.880Z,12.11
2018-02-05T13:30:56.414Z,12.29
2018-02-05T13:33:23.963Z,11.86
2018-02-05T13:35:51.456Z,11.58
2018-02-05T13:38:18.997Z,11.25
2018-02-05T13:40:46.472Z,10.54
2018-02-05T13:43:14.026Z,10.22
2018-02-05T13:45:41.620Z,10.00
2018-02-05T13:48:09.128Z,9.92
2018-02-05T13:50:36.638Z,9.98
2018-02-05T13:53:04.167Z,9.66
2018-02-05T13:55:32.401Z,9.49
2018-02-05T13:57:59.925Z,9.50
2018-02-05T14:00:27.438Z,9.48
2018-02-05T14:02:54.959Z,9.14
2018-02-05T14:05:22.837Z,8.92
2018-02-05T14:07:50.362Z,8.65
2018-02-05T14:10:17.857Z,8.49
2018-02-05T14:12:45.619Z,8.51
2018-02-05T14:15:13.153Z,8.52
2018-02-05T14:17:40.692Z,8.42
2018-02-05T14:20:08.188Z,8.39
2018-02-05T14:22:35.729Z,8.26
2018-02-05T14:25:03.289Z,7.93
2018-02-05T14:27:31.710Z,7.65
2018-02-05T14:29:59.253Z,7.54
2018-02-05T14:32:26.757Z,7.48
2018-02-05T14:34:54.290Z,7.51
2018-02-05T14:37:21.804Z,7.54
2018-02-05T14:39:49.292Z,7.45
2018-02-05T14:42:16.809Z,7.39
2018-02-05T14:44:44.990Z,7.25
2018-02-05T14:47:12.536Z,6.95
2018-02-05T14:49:41.036Z,6.80
2018-02-05T14:52:08.565Z,6.77
2018-02-05T14:54:36.103Z,6.75
2018-02-05T14:57:03.643Z,6.74
2018-02-05T14:59:31.204Z,6.66
2018-02-05T15:01:58.706Z,6.60
2018-02-05T15:04:26.455Z,6.52
2018-02-05T15:06:53.992Z,6.48
2018-02-05T15:09:22.497Z,6.50
2018-02-05T15:11:50.027Z,6.54
2018-02-05T15:14:17.522Z,6.52
2018-02-05T15:16:45.028Z,6.53
2018-02-05T15:19:12.543Z,6.46
2018-02-05T15:21:41.865Z,6.41
2018-02-05T15:24:11.582Z,6.32
2018-02-05T15:26:41.102Z,6.22
2018-02-05T15:29:10.249Z,6.19
2018-02-05T15:31:39.512Z,6.09
2018-02-05T15:34:07.055Z,5.92
2018-02-05T15:36:36.276Z,5.89
2018-02-05T15:39:05.674Z,5.88
2018-02-05T15:44:11.787Z,5.77
2018-02-05T15:46:39.566Z,5.69
2018-02-05T15:49:10.667Z,5.73
2018-02-05T15:51:39.978Z,5.69
2018-02-05T15:54:09.276Z,5.63
2018-02-05T15:56:38.784Z,5.63
2018-02-05T15:59:06.863Z,5.55
2018-02-05T16:01:36.156Z,5.42
2018-02-05T16:04:06.077Z,5.32
2018-02-05T16:06:33.647Z,5.36
2018-02-05T16:09:01.315Z,5.31
2018-02-05T16:11:28.992Z,5.22
2018-02-05T16:13:56.490Z,5.22
2018-02-05T16:16:23.994Z,5.21
2018-02-05T16:18:51.540Z,5.08
2018-02-05T16:21:19.089Z,4.96
2018-02-05T16:23:46.695Z,4.99
2018-02-05T16:26:14.231Z,4.98
2018-02-05T16:28:41.768Z,4.97
2018-02-05T16:31:09.269Z,5.01
2018-02-05T16:33:37.127Z,4.95
2018-02-05T16:36:04.657Z,4.90
2018-02-05T16:38:32.215Z,4.93
2018-02-05T16:40:59.799Z,4.90
2018-02-05T16:43:27.360Z,4.88
2018-02-05T16:45:55.022Z,4.89
2018-02-05T16:48:22.574Z,4.89
2018-02-05T16:50:50.187Z,4.86
2018-02-05T16:53:17.747Z,4.88
2018-02-05T16:55:45.338Z,4.84
2018-02-05T16:58:12.842Z,4.82
2018-02-05T17:00:40.356Z,4.86
2018-02-05T17:03:07.974Z,4.84
2018-02-05T17:05:35.486Z,4.80
2018-02-05T17:08:02.994Z,4.65
2018-02-05T17:10:30.525Z,4.60
2018-02-05T17:12:58.025Z,4.59
2018-02-05T17:15:25.566Z,4.54
2018-02-05T17:17:53.091Z,4.56
2018-02-05T17:20:20.605Z,4.58
2018-02-05T17:22:48.405Z,4.52
2018-02-05T17:25:15.967Z,4.45
2018-02-05T17:27:44.869Z,4.43
2018-02-05T17:30:12.617Z,4.54
2018-02-05T17:32:40.377Z,4.61
2018-02-05T17:35:08.392Z,4.71
2018-02-05T17:37:35.961Z,4.72
2018-02-05T17:40:03.501Z,4.75
2018-02-05T17:42:31.392Z,4.74
2018-02-05T17:44:58.984Z,4.76
2018-02-05T17:47:27.214Z,4.71
2018-02-05T17:49:54.813Z,4.67
2018-02-05T17:52:22.376Z,4.65
2018-02-05T17:54:49.918Z,4.73
2018-02-05T17:57:17.423Z,4.76
2018-02-05T17:59:44.965Z,4.82
2018-02-05T18:02:12.564Z,4.81
2018-02-05T18:04:40.089Z,4.75
2018-02-05T18:07:08.095Z,4.84
2018-02-05T18:09:35.639Z,4.97
2018-02-05T18:12:03.304Z,5.00
2018-02-05T18:14:30.865Z,5.04
2018-02-05T18:16:59.150Z,5.08
2018-02-05T18:19:27.020Z,5.10
2018-02-05T18:21:54.618Z,5.13
2018-02-05T18:24:22.154Z,5.17
2018-02-05T18:26:49.686Z,5.17
2018-02-05T18:29:17.236Z,5.21
2018-02-05T18:31:44.767Z,5.24
2018-02-05T18:34:12.320Z,5.20
2018-02-05T18:36:40.003Z,5.18
2018-02-05T18:39:07.565Z,5.14
2018-02-05T18:41:35.135Z,5.21
2018-02-05T18:44:02.703Z,5.28
2018-02-05T18:46:30.233Z,5.30
2018-02-05T18:48:57.725Z,5.31
2018-02-05T18:51:25.270Z,5.34
2018-02-05T18:53:52.846Z,5.36
2018-02-05T18:56:32.338Z,5.38
2018-02-05T18:58:59.858Z,5.34
2018-02-05T19:01:27.451Z,5.33
2018-02-05T19:03:54.973Z,5.31
2018-02-05T19:06:22.552Z,5.28
2018-02-05T19:08:50.114Z,5.22
2018-02-05T19:11:17.671Z,5.16
2018-02-05T19:13:45.285Z,5.13
2018-02-05T19:16:12.907Z,5.12
2018-02-05T19:18:40.431Z,5.09
2018-02-05T19:21:07.972Z,4.99
2018-02-05T19:23:35.525Z,4.96
2018-02-05T19:26:03.027Z,4.92
2018-02-05T19:28:30.535Z,4.97
2018-02-05T19:30:58.129Z,4.98
2018-02-05T19:33:25.627Z,4.97
2018-02-05T19:35:53.160Z,5.01
2018-02-05T19:38:20.746Z,4.98
2018-02-05T19:40:48.337Z,4.98
2018-02-05T19:43:15.847Z,4.92
2018-02-05T19:45:44.232Z,4.87
2018-02-05T19:48:11.746Z,4.83
2018-02-05T19:50:39.291Z,4.80
2018-02-05T19:53:06.842Z,4.73
2018-02-05T19:55:34.443Z,4.73
2018-02-05T19:58:04.990Z,4.71
2018-02-05T20:00:32.536Z,4.67
2018-02-05T20:03:00.096Z,4.65
2018-02-05T20:05:27.628Z,4.64
2018-02-05T20:07:55.161Z,4.57
2018-02-05T20:10:22.768Z,4.50
2018-02-05T20:12:50.323Z,4.51
2018-02-05T20:15:17.945Z,4.53
2018-02-05T20:17:45.515Z,4.57
2018-02-05T20:20:13.060Z,4.58
2018-02-05T20:22:40.704Z,4.60
2018-02-05T20:25:08.225Z,4.63
2018-02-05T20:27:35.783Z,4.53
2018-02-05T20:30:03.306Z,4.48
2018-02-05T20:32:30.856Z,4.42
2018-02-05T20:34:58.378Z,4.41
2018-02-05T20:37:25.915Z,4.42
2018-02-05T20:39:53.464Z,4.41
2018-02-05T20:42:20.993Z,4.43
2018-02-05T20:44:48.594Z,4.44
2018-02-05T20:47:16.582Z,4.41
2018-02-05T20:49:44.237Z,4.46
2018-02-05T20:52:11.827Z,4.51
2018-02-05T20:54:39.351Z,4.49
2018-02-05T20:57:06.859Z,4.35
2018-02-05T20:59:34.442Z,4.34
2018-02-05T21:02:01.952Z,4.33
2018-02-05T21:04:29.444Z,4.27
2018-02-05T21:06:56.985Z,4.27
2018-02-05T21:09:24.518Z,4.24
2018-02-05T21:11:52.117Z,4.25
2018-02-05T21:14:20.119Z,4.29
2018-02-05T21:16:47.712Z,4.28
2018-02-05T21:19:15.358Z,4.33
2018-02-05T21:21:42.976Z,4.33
2018-02-05T21:24:10.456Z,4.32
2018-02-05T21:26:38.002Z,4.32
2018-02-05T21:29:05.685Z,4.33
2018-02-05T21:31:33.225Z,4.30
2018-02-05T21:34:00.758Z,4.31
2018-02-05T21:36:28.267Z,4.31
2018-02-05T21:38:55.796Z,4.27
2018-02-05T21:41:23.301Z,4.25
2018-02-05T21:43:50.819Z,4.28
2018-02-05T21:46:18.419Z,4.26
2018-02-05T21:48:45.929Z,4.29
2018-02-05T21:51:13.433Z,4.31
2018-02-05T21:53:41.594Z,4.36
2018-02-05T21:56:09.207Z,4.36
2018-02-05T21:58:37.112Z,4.35
2018-02-05T22:01:04.646Z,4.32
2018-02-05T22:03:32.155Z,4.26
2018-02-05T22:05:59.676Z,4.15
2018-02-05T22:08:27.194Z,4.15
2018-02-05T22:10:54.786Z,4.20
2018-02-05T22:13:22.320Z,4.18
2018-02-05T22:15:49.819Z,4.21
2018-02-05T22:18:17.358Z,4.09
2018-02-05T22:20:44.880Z,4.00
2018-02-05T22:23:12.375Z,3.95
2018-02-05T22:25:40.604Z,3.91
2018-02-05T22:28:08.223Z,3.93
2018-02-05T22:30:35.755Z,3.97
2018-02-05T22:33:03.393Z,3.93
2018-02-05T22:35:31.001Z,3.96
2018-02-05T22:37:58.472Z,3.82
2018-02-05T22:40:25.980Z,3.68
2018-02-05T22:42:53.509Z,3.73
2018-02-05T22:45:21.014Z,3.74
2018-02-05T22:47:48.563Z,3.85
2018-02-05T22:50:16.068Z,3.88
2018-02-05T22:52:43.669Z,3.78
2018-02-05T22:55:11.219Z,3.82
2018-02-05T22:57:42.611Z,3.89
2018-02-05T23:00:10.117Z,3.96
2018-02-05T23:02:37.614Z,4.03
2018-02-05T23:05:05.131Z,4.04
2018-02-05T23:07:32.621Z,4.04
2018-02-05T23:10:00.133Z,4.08
2018-02-05T23:12:27.650Z,4.17
2018-02-05T23:14:55.292Z,4.27
2018-02-05T23:17:22.788Z,4.29
2018-02-05T23:19:50.315Z,4.27
2018-02-05T23:22:17.835Z,4.35
2018-02-05T23:24:45.396Z,4.42
2018-02-05T23:27:12.913Z,4.49
2018-02-05T23:29:40.410Z,4.49
2018-02-05T23:32:08.036Z,4.44
2018-02-05T23:34:35.617Z,4.32
2018-02-05T23:37:03.225Z,4.17
2018-02-05T23:39:30.751Z,4.14
2018-02-05T23:41:58.462Z,3.99
2018-02-05T23:44:26.001Z,4.09
2018-02-05T23:46:53.534Z,4.14
2018-02-05T23:49:21.163Z,4.15
2018-02-05T23:51:48.700Z,4.14
2018-02-05T23:54:16.221Z,4.08
2018-02-05T23:56:43.719Z,4.05
2018-02-05T23:59:11.412Z,3.99
